createdAt,value
2024-03-24T00:02:19.404Z,7.15
2024-03-24T00:04:53.122Z,7.17
2024-03-24T00:07:26.356Z,7.16
2024-03-24T00:10:00.385Z,7.16
2024-03-24T00:23:13.143Z,7.00
2024-03-24T00:25:46.635Z,6.96
2024-03-24T00:28:20.155Z,6.94
2024-03-24T00:30:54.804Z,6.90
2024-03-24T00:33:29.108Z,6.85
2024-03-24T00:36:02.698Z,6.83
2024-03-24T00:49:01.116Z,6.72
2024-03-24T00:51:41.108Z,6.71
2024-03-24T00:54:14.339Z,6.69
2024-03-24T00:56:48.152Z,6.68
2024-03-24T00:59:21.474Z,6.69
2024-03-24T01:01:55.126Z,6.71
2024-03-24T01:04:30.200Z,6.71
2024-03-24T01:17:25.154Z,6.71
2024-03-24T01:20:07.118Z,6.71
2024-03-24T01:22:41.873Z,6.66
2024-03-24T01:25:16.102Z,6.70
2024-03-24T01:27:49.250Z,6.70
2024-03-24T01:30:29.142Z,6.68
2024-03-24T01:43:41.099Z,6.64
2024-03-24T01:46:14.805Z,6.63
2024-03-24T01:48:48.136Z,6.61
2024-03-24T01:51:23.673Z,6.63
2024-03-24T01:53:58.107Z,6.60
2024-03-24T02:10:35.073Z,6.50
2024-03-24T02:13:15.123Z,6.49
2024-03-24T02:15:49.813Z,6.44
2024-03-24T02:18:23.412Z,6.40
2024-03-24T02:20:57.396Z,6.40
2024-03-24T02:23:33.091Z,6.41
2024-03-24T02:26:06.380Z,6.42
2024-03-24T02:36:00.161Z,6.42
2024-03-24T02:38:35.302Z,6.43
2024-03-24T02:41:09.139Z,6.43
2024-03-24T02:43:42.326Z,6.42
2024-03-24T02:46:16.122Z,6.42
2024-03-24T02:48:50.380Z,6.41
2024-03-24T02:51:24.105Z,6.39
2024-03-24T03:04:43.111Z,6.40
2024-03-24T03:07:16.339Z,6.42
2024-03-24T03:09:50.118Z,6.42
2024-03-24T03:12:23.376Z,6.40
2024-03-24T03:14:57.085Z,6.41
2024-03-24T03:31:34.063Z,6.29
2024-03-24T03:34:16.084Z,6.26
2024-03-24T03:36:50.393Z,6.24
2024-03-24T03:39:24.136Z,6.23
2024-03-24T03:41:58.151Z,6.21
2024-03-24T03:44:31.143Z,6.19
2024-03-24T03:57:43.092Z,6.08
2024-03-24T04:00:16.961Z,6.05
2024-03-24T04:02:53.104Z,6.02
2024-03-24T04:05:26.324Z,6.00
2024-03-24T04:08:06.085Z,5.97
2024-03-24T04:10:39.398Z,5.95
2024-03-24T04:23:30.066Z,5.87
2024-03-24T04:26:10.396Z,5.88
2024-03-24T04:28:44.361Z,5.87
2024-03-24T04:31:18.109Z,5.86
2024-03-24T04:33:51.566Z,5.83
2024-03-24T04:36:25.105Z,5.81
2024-03-24T04:49:47.086Z,5.76
2024-03-24T04:52:23.253Z,5.74
2024-03-24T04:54:57.113Z,5.74
2024-03-24T04:57:30.365Z,5.73
2024-03-24T05:00:04.093Z,5.72
2024-03-24T05:02:37.430Z,5.72
2024-03-24T05:05:15.090Z,5.72
2024-03-24T05:18:25.066Z,5.78
2024-03-24T05:21:00.224Z,5.77
2024-03-24T05:23:34.080Z,5.78
2024-03-24T05:26:07.337Z,5.77
2024-03-24T05:28:50.218Z,5.78
2024-03-24T05:31:29.360Z,5.78
2024-03-24T05:44:20.059Z,5.80
2024-03-24T05:47:00.211Z,5.80
2024-03-24T05:49:33.358Z,5.80
2024-03-24T05:52:07.076Z,5.81
2024-03-24T05:54:40.328Z,5.80
2024-03-24T06:10:40.094Z,5.84
2024-03-24T06:13:13.417Z,5.84
2024-03-24T06:15:47.063Z,5.84
2024-03-24T06:18:20.333Z,5.83
2024-03-24T06:20:54.084Z,5.85
2024-03-24T06:23:27.328Z,5.84
2024-03-24T06:26:03.078Z,5.85
2024-03-24T06:39:10.102Z,5.87
2024-03-24T06:41:39.001Z,5.89
2024-03-24T06:44:19.054Z,5.93
2024-03-24T06:46:52.284Z,5.96
2024-03-24T06:49:26.074Z,6.01
2024-03-24T07:03:21.057Z,6.09
2024-03-24T07:05:56.258Z,6.13
2024-03-24T07:08:30.090Z,6.13
2024-03-24T07:11:03.722Z,6.16
2024-03-24T07:13:37.097Z,6.18
2024-03-24T07:16:10.236Z,6.20
2024-03-24T07:18:50.093Z,6.23
2024-03-24T07:21:25.206Z,6.23
2024-03-24T07:30:55.092Z,6.35
2024-03-24T07:33:30.649Z,6.40
2024-03-24T07:36:13.356Z,6.44
2024-03-24T07:38:49.250Z,6.45
2024-03-24T07:41:23.070Z,6.47
2024-03-24T07:43:56.301Z,6.52
2024-03-24T07:46:30.081Z,6.54
2024-03-24T07:56:59.056Z,6.62
2024-03-24T07:59:41.739Z,6.65
2024-03-24T08:02:17.333Z,6.68
2024-03-24T08:04:51.058Z,6.67
2024-03-24T08:07:24.375Z,6.69
2024-03-24T08:09:58.095Z,6.72
2024-03-24T08:23:46.061Z,6.96
2024-03-24T08:26:19.324Z,7.00
2024-03-24T08:28:53.059Z,7.06
2024-03-24T08:31:26.444Z,7.11
2024-03-24T08:34:00.060Z,7.16
2024-03-24T08:36:33.273Z,7.21
2024-03-24T08:39:09.246Z,7.26
2024-03-24T08:52:19.080Z,7.46
2024-03-24T08:54:54.249Z,7.50
2024-03-24T08:57:28.079Z,7.53
2024-03-24T09:00:01.299Z,7.54
2024-03-24T09:02:35.058Z,7.57
2024-03-24T09:05:08.876Z,7.59
2024-03-24T09:17:59.019Z,7.71
2024-03-24T09:20:39.044Z,7.75
2024-03-24T09:23:12.286Z,7.79
2024-03-24T09:25:46.062Z,7.83
2024-03-24T09:28:19.312Z,7.85
2024-03-24T09:31:03.072Z,7.86
2024-03-24T09:44:18.350Z,7.92
2024-03-24T09:46:51.394Z,7.90
2024-03-24T09:49:26.072Z,7.89
2024-03-24T09:52:01.495Z,7.91
2024-03-24T09:54:35.070Z,7.91
2024-03-24T09:57:08.543Z,7.89
2024-03-24T09:59:45.059Z,7.86
2024-03-24T10:13:03.048Z,7.83
2024-03-24T10:15:38.463Z,7.84
2024-03-24T10:18:14.028Z,7.91
2024-03-24T10:20:47.809Z,7.97
2024-03-24T10:23:21.037Z,8.03
2024-03-24T10:25:57.722Z,8.13
2024-03-24T10:38:55.002Z,8.48
2024-03-24T10:41:35.117Z,8.56
2024-03-24T10:44:10.012Z,8.61
2024-03-24T10:46:46.230Z,8.67
2024-03-24T10:49:26.556Z,8.75
2024-03-24T11:05:51.047Z,8.98
2024-03-24T11:08:24.270Z,9.03
2024-03-24T11:11:01.062Z,9.04
2024-03-24T11:13:37.475Z,9.08
2024-03-24T11:16:18.026Z,9.11
2024-03-24T11:18:53.866Z,9.14
2024-03-24T11:31:20.026Z,9.50
2024-03-24T11:34:07.039Z,9.60
2024-03-24T11:36:44.420Z,9.74
2024-03-24T11:39:26.040Z,9.82
2024-03-24T11:42:06.374Z,9.88
2024-03-24T11:44:48.074Z,9.89
2024-03-24T11:58:00.062Z,9.97
2024-03-24T12:00:33.526Z,9.99
2024-03-24T12:03:07.025Z,10.02
2024-03-24T12:05:40.355Z,10.05
2024-03-24T12:08:14.024Z,10.08
2024-03-24T12:10:47.686Z,10.10
2024-03-24T12:24:29.012Z,9.98
2024-03-24T12:27:09.043Z,9.96
2024-03-24T12:29:52.022Z,9.95
2024-03-24T12:32:32.033Z,9.92
2024-03-24T12:35:06.406Z,9.90
2024-03-24T12:37:41.033Z,9.87
2024-03-24T12:40:21.664Z,9.84
2024-03-24T12:53:35.010Z,9.59
2024-03-24T12:56:20.372Z,9.53
2024-03-24T12:58:57.813Z,9.49
2024-03-24T13:01:39.041Z,9.44
2024-03-24T13:04:16.655Z,9.40
2024-03-24T13:18:01.867Z,9.24
2024-03-24T13:20:48.008Z,9.19
2024-03-24T13:23:24.841Z,9.17
2024-03-24T13:26:08.044Z,9.16
2024-03-24T13:28:41.246Z,9.15
2024-03-24T13:31:15.061Z,9.15
2024-03-24T13:44:58.017Z,9.19
2024-03-24T13:47:33.592Z,9.16
2024-03-24T13:50:08.029Z,9.16
2024-03-24T13:52:43.362Z,9.11
2024-03-24T13:55:17.066Z,9.05
2024-03-24T13:57:50.320Z,9.00
2024-03-24T14:00:26.341Z,8.94
2024-03-24T14:14:02.045Z,8.87
2024-03-24T14:16:50.435Z,8.86
2024-03-24T14:19:46.002Z,8.86
2024-03-24T14:22:25.200Z,8.83
2024-03-24T14:25:19.026Z,8.82
2024-03-24T14:38:53.035Z,9.81
2024-03-24T14:41:47.898Z,9.84
2024-03-24T14:44:55.059Z,9.68
2024-03-24T14:47:46.369Z,9.84
2024-03-24T14:50:27.009Z,9.98
2024-03-24T15:07:04.003Z,10.36
2024-03-24T15:09:44.045Z,10.09
2024-03-24T15:12:17.246Z,9.90
2024-03-24T15:14:51.023Z,9.75
2024-03-24T15:17:24.497Z,9.62
2024-03-24T15:19:58.034Z,9.51
2024-03-24T15:33:10.022Z,9.54
2024-03-24T15:35:43.320Z,9.54
2024-03-24T15:38:17.008Z,9.58
2024-03-24T15:40:50.310Z,9.62
2024-03-24T15:43:24.031Z,9.57
2024-03-24T15:45:57.313Z,9.49
2024-03-24T15:59:17.002Z,9.17
2024-03-24T16:02:25.016Z,9.25
2024-03-24T16:04:59.953Z,9.32
2024-03-24T16:07:47.311Z,9.39
2024-03-24T16:10:47.480Z,9.42
2024-03-24T16:27:10.047Z,9.18
2024-03-24T16:29:43.238Z,9.17
2024-03-24T16:32:17.010Z,9.15
2024-03-24T16:34:50.282Z,9.14
2024-03-24T16:37:24.018Z,9.12
2024-03-24T16:39:57.404Z,9.08
2024-03-24T16:52:32.051Z,8.97
2024-03-24T16:55:14.049Z,8.94
2024-03-24T16:57:47.249Z,8.92
2024-03-24T17:00:22.010Z,8.89
2024-03-24T17:02:55.324Z,8.86
2024-03-24T17:05:30.001Z,8.84
2024-03-24T17:18:47.001Z,8.63
2024-03-24T17:21:20.332Z,8.58
2024-03-24T17:23:54.043Z,8.53
2024-03-24T17:26:27.180Z,8.50
2024-03-24T17:29:07.025Z,8.46
2024-03-24T17:31:40.429Z,8.44
2024-03-24T17:34:16.014Z,8.42
2024-03-24T17:47:25.988Z,8.28
2024-03-24T17:50:01.158Z,8.26
2024-03-24T17:52:34.997Z,8.24
2024-03-24T17:55:08.994Z,8.19
2024-03-24T17:57:42.030Z,8.14
2024-03-24T18:00:16.331Z,8.10
2024-03-24T18:13:06.974Z,7.93
2024-03-24T18:15:47.292Z,7.87
2024-03-24T18:18:20.835Z,7.86
2024-03-24T18:20:53.997Z,7.84
2024-03-24T18:23:28.045Z,7.83
2024-03-24T18:26:01.009Z,7.81
2024-03-24T18:39:12.987Z,7.75
2024-03-24T18:41:46.361Z,7.74
2024-03-24T18:44:19.994Z,7.74
2024-03-24T18:46:53.243Z,7.75
2024-03-24T18:49:27.003Z,7.76
2024-03-24T18:52:00.621Z,7.75
2024-03-24T18:54:36.019Z,7.71
2024-03-24T19:07:46.065Z,7.54
2024-03-24T19:10:21.238Z,7.53
2024-03-24T19:12:55.011Z,7.53
2024-03-24T19:15:28.290Z,7.51
2024-03-24T19:18:02.169Z,7.51
2024-03-24T19:20:35.252Z,7.50
2024-03-24T19:33:35.971Z,7.48
2024-03-24T19:36:15.979Z,7.50
2024-03-24T19:38:49.826Z,7.48
2024-03-24T19:41:24.020Z,7.49
2024-03-24T19:43:57.322Z,7.49
2024-03-24T19:46:30.996Z,7.47
2024-03-24T19:59:43.015Z,7.41
2024-03-24T20:02:16.535Z,7.41
2024-03-24T20:04:49.971Z,7.42
2024-03-24T20:07:23.340Z,7.41
2024-03-24T20:09:56.978Z,7.41
2024-03-24T20:12:30.302Z,7.40
2024-03-24T20:15:06.013Z,7.37
2024-03-24T20:28:15.979Z,7.21
2024-03-24T20:30:51.439Z,7.20
2024-03-24T20:33:24.994Z,7.20
2024-03-24T20:35:58.290Z,7.20
2024-03-24T20:38:31.986Z,7.21
2024-03-24T20:41:05.401Z,7.22
2024-03-24T20:53:55.951Z,7.20
2024-03-24T20:56:35.980Z,7.18
2024-03-24T20:59:09.416Z,7.19
2024-03-24T21:01:43.023Z,7.21
2024-03-24T21:04:16.328Z,7.20
2024-03-24T21:06:49.976Z,7.20
2024-03-24T21:20:08.969Z,7.24
2024-03-24T21:22:42.321Z,7.24
2024-03-24T21:25:16.303Z,7.23
2024-03-24T21:27:50.221Z,7.23
2024-03-24T21:30:23.979Z,7.25
2024-03-24T21:32:57.369Z,7.23
2024-03-24T21:35:32.975Z,7.23
2024-03-24T21:48:39.963Z,7.25
2024-03-24T21:51:08.861Z,7.21
2024-03-24T21:53:49.016Z,7.22
2024-03-24T21:56:22.170Z,7.22
2024-03-24T21:58:56.000Z,7.22
2024-03-24T22:01:29.240Z,7.22
2024-03-24T22:14:19.934Z,7.15
2024-03-24T22:16:59.974Z,7.14
2024-03-24T22:19:33.199Z,7.14
2024-03-24T22:22:07.022Z,7.15
2024-03-24T22:24:40.231Z,7.15
2024-03-24T22:40:55.960Z,7.13
2024-03-24T22:43:29.217Z,7.13
2024-03-24T22:46:02.998Z,7.12
2024-03-24T22:48:36.207Z,7.10
2024-03-24T22:51:09.964Z,7.10
2024-03-24T22:53:43.215Z,7.10
2024-03-24T22:56:18.962Z,7.06
2024-03-24T23:06:29.922Z,7.02
2024-03-24T23:09:09.985Z,7.00
2024-03-24T23:11:45.158Z,7.00
2024-03-24T23:14:24.965Z,7.00
2024-03-24T23:16:58.316Z,7.00
2024-03-24T23:19:31.943Z,7.02
2024-03-24T23:33:12.240Z,6.97
2024-03-24T23:35:47.200Z,6.96
2024-03-24T23:38:20.947Z,6.97
2024-03-24T23:40:54.177Z,7.00
2024-03-24T23:43:27.973Z,6.99
2024-03-24T23:46:04.586Z,6.99
2024-03-24T23:59:50.914Z,7.00
